Time;durP1;ratioP1;P1;durP2;ratioP2;P2;SDS_P1;SDS_P2;PMS_P1;PMS_P2;Temp;Humidity;BMP_temperature;BMP_pressure;BME280_temperature;BME280_humidity;BME280_pressure;Samples;Min_cycle;Max_cycle;Signal;HPM_P1;HPM_P2
2023/07/14 00:01:51;;;;;;;4.32;1.50;;;18.50;99.90;;;;;;4987416;28;20026;-75
2023/07/14 00:04:31;;;;;;;4.13;1.40;;;18.50;99.90;;;;;;4990432;28;20042;-75
2023/07/14 00:06:57;;;;;;;4.05;1.20;;;18.60;99.90;;;;;;4989025;28;20033;-75
2023/07/14 00:09:25;;;;;;;8.45;1.73;;;18.50;99.90;;;;;;4988023;28;20058;-75
2023/07/14 00:11:51;;;;;;;6.07;1.60;;;18.40;99.90;;;;;;4984055;28;20034;-75
2023/07/14 00:14:17;;;;;;;3.15;1.55;;;18.40;99.90;;;;;;4982903;28;20496;-75
2023/07/14 00:16:44;;;;;;;5.35;1.50;;;18.50;99.90;;;;;;4988948;28;20033;-75
2023/07/14 00:19:16;;;;;;;3.28;1.13;;;18.40;99.90;;;;;;4989727;28;20034;-75
2023/07/14 00:21:43;;;;;;;3.08;1.33;;;18.40;99.90;;;;;;4988122;28;20117;-75
2023/07/14 00:24:14;;;;;;;9.02;1.75;;;18.40;99.90;;;;;;4988772;28;20041;-75
2023/07/14 00:26:41;;;;;;;7.70;1.80;;;18.40;99.90;;;;;;4985680;28;20085;-75
2023/07/14 00:29:34;;;;;;;3.88;1.70;;;18.30;99.90;;;;;;4988084;28;20705;-75
2023/07/14 00:31:59;;;;;;;4.30;1.40;;;18.50;99.90;;;;;;4987683;28;20042;-75
2023/07/14 00:34:25;;;;;;;4.13;1.60;;;18.40;99.90;;;;;;4988260;28;20096;-75
2023/07/14 00:36:51;;;;;;;3.13;1.55;;;18.40;99.90;;;;;;4989538;28;20042;-75
2023/07/14 00:39:17;;;;;;;6.68;1.83;;;18.30;99.90;;;;;;4988975;28;20034;-75
2023/07/14 00:41:43;;;;;;;4.03;1.30;;;18.30;99.90;;;;;;4988400;28;20033;-75
2023/07/14 00:44:15;;;;;;;6.22;2.40;;;18.20;99.90;;;;;;4987597;28;20073;-75
2023/07/14 00:46:42;;;;;;;2.80;1.42;;;18.30;99.90;;;;;;4989343;28;20026;-75
2023/07/14 00:49:36;;;;;;;6.25;1.45;;;18.30;99.90;;;;;;4988788;28;20574;-75
2023/07/14 00:52:16;;;;;;;4.13;1.75;;;18.10;99.90;;;;;;4988483;28;20445;-75
2023/07/14 00:54:46;;;;;;;3.08;1.50;;;18.00;99.90;;;;;;4986649;28;20030;-75
2023/07/14 00:57:17;;;;;;;2.75;1.35;;;18.00;99.90;;;;;;4987990;28;20121;-75
2023/07/14 00:59:42;;;;;;;3.10;1.60;;;17.90;99.90;;;;;;4987610;28;20116;-75
2023/07/14 01:02:11;;;;;;;5.03;1.58;;;17.90;99.90;;;;;;4989614;28;20453;-75
2023/07/14 01:04:43;;;;;;;4.90;1.70;;;17.80;99.90;;;;;;4989185;28;20084;-75
2023/07/14 01:07:10;;;;;;;4.88;1.85;;;17.80;99.90;;;;;;4987977;28;20428;-75
2023/07/14 01:09:36;;;;;;;2.95;1.30;;;17.80;99.90;;;;;;4988962;28;20041;-75
2023/07/14 01:12:03;;;;;;;4.03;1.40;;;17.90;99.90;;;;;;4986761;28;20023;-75
2023/07/14 01:14:35;;;;;;;3.25;1.20;;;17.90;99.90;;;;;;4987567;28;20436;-75
2023/07/14 01:17:03;;;;;;;3.03;1.40;;;18.10;99.90;;;;;;4983785;28;20035;-75
2023/07/14 01:19:57;;;;;;;3.00;1.33;;;18.20;99.90;;;;;;4988647;28;20088;-75
2023/07/14 01:22:34;;;;;;;5.45;1.63;;;18.20;99.90;;;;;;4988412;28;20034;-75
2023/07/14 01:25:21;;;;;;;3.80;1.20;;;18.00;99.90;;;;;;4987071;28;20045;-75
2023/07/14 01:27:48;;;;;;;4.32;1.35;;;18.10;99.90;;;;;;4986897;28;20038;-75
2023/07/14 01:30:15;;;;;;;6.05;1.92;;;18.20;99.90;;;;;;4986977;28;20116;-75
2023/07/14 01:32:45;;;;;;;5.07;1.55;;;18.10;99.90;;;;;;4989377;28;20026;-75
2023/07/14 01:35:12;;;;;;;4.32;1.60;;;18.10;99.90;;;;;;4987535;28;20436;-74
2023/07/14 01:37:39;;;;;;;10.48;1.73;;;18.10;99.90;;;;;;4987522;28;20106;-75
2023/07/14 01:40:17;;;;;;;3.33;1.30;;;18.10;99.90;;;;;;4987629;28;20433;-75
2023/07/14 01:42:48;;;;;;;6.88;1.35;;;18.10;99.90;;;;;;4988610;28;20049;-75
2023/07/14 01:45:17;;;;;;;8.30;2.45;;;17.90;99.90;;;;;;4985407;28;20038;-75
2023/07/14 01:47:46;;;;;;;6.35;1.67;;;17.70;99.90;;;;;;4987251;28;20480;-75
2023/07/14 01:50:25;;;;;;;3.33;1.63;;;17.40;99.90;;;;;;4988979;28;20028;-75
2023/07/14 01:52:55;;;;;;;5.35;2.03;;;17.40;99.90;;;;;;4985916;28;20152;-75
2023/07/14 01:55:23;;;;;;;3.30;1.20;;;17.40;99.90;;;;;;4986947;28;20113;-75
2023/07/14 01:57:54;;;;;;;6.13;2.22;;;17.50;99.90;;;;;;4986822;28;20034;-75
2023/07/14 02:00:20;;;;;;;4.25;1.30;;;17.50;99.90;;;;;;4987428;28;20029;-75
2023/07/14 02:02:48;;;;;;;4.57;1.15;;;17.50;99.90;;;;;;4988099;28;20042;-74
2023/07/14 02:05:28;;;;;;;4.53;1.20;;;17.60;99.90;;;;;;4986540;28;20143;-75
2023/07/14 02:07:56;;;;;;;4.75;1.50;;;17.70;99.90;;;;;;4985318;28;20049;-75
2023/07/14 02:10:22;;;;;;;8.05;1.60;;;17.80;99.90;;;;;;4984431;28;20035;-75
2023/07/14 02:12:49;;;;;;;7.75;1.67;;;17.90;99.90;;;;;;4986050;28;20469;-75
2023/07/14 02:15:23;;;;;;;4.03;1.33;;;17.90;99.90;;;;;;4987334;28;20047;-75
2023/07/14 02:17:50;;;;;;;1.80;0.90;;;17.80;99.90;;;;;;4984517;28;20033;-75
2023/07/14 02:20:20;;;;;;;4.40;1.65;;;17.90;99.90;;;;;;4988165;28;20477;-75
2023/07/14 02:22:48;;;;;;;5.15;1.45;;;17.80;99.90;;;;;;4987071;28;20143;-75
2023/07/14 02:25:17;;;;;;;2.53;1.58;;;17.70;99.90;;;;;;4985709;28;20042;-75
2023/07/14 02:27:43;;;;;;;5.60;1.52;;;17.70;99.90;;;;;;4988338;28;20353;-75
2023/07/14 02:30:21;;;;;;;8.55;1.92;;;17.60;99.90;;;;;;4983250;28;20054;-75
2023/07/14 02:32:55;;;;;;;2.85;1.30;;;17.60;99.90;;;;;;4983089;28;20044;-75
2023/07/14 02:35:44;;;;;;;3.20;1.40;;;17.70;99.90;;;;;;4985625;28;20026;-75
2023/07/14 02:38:14;;;;;;;5.93;1.50;;;17.60;99.90;;;;;;4986504;28;20436;-75
2023/07/14 02:41:14;;;;;;;4.18;1.33;;;17.60;99.90;;;;;;4989485;28;20034;-75
2023/07/14 02:43:40;;;;;;;2.35;1.38;;;17.50;99.90;;;;;;4988982;28;20057;-75
2023/07/14 02:46:14;;;;;;;4.70;1.23;;;17.40;99.90;;;;;;4992244;28;20030;-75
2023/07/14 02:48:43;;;;;;;8.18;1.55;;;17.40;99.90;;;;;;4987998;28;20489;-75
2023/07/14 02:51:10;;;;;;;4.10;1.50;;;17.40;99.90;;;;;;4990438;28;20049;-75
2023/07/14 02:53:36;;;;;;;5.32;1.65;;;17.40;99.90;;;;;;4988180;28;20034;-75
2023/07/14 02:56:02;;;;;;;3.53;1.35;;;17.40;99.90;;;;;;4991354;28;20066;-75
2023/07/14 02:58:28;;;;;;;3.22;1.60;;;17.40;99.90;;;;;;4991700;28;20026;-74
2023/07/14 03:00:53;;;;;;;4.90;1.40;;;17.70;99.90;;;;;;4990869;28;20041;-75
2023/07/14 03:03:19;;;;;;;4.97;1.85;;;17.70;99.90;;;;;;4983825;28;20030;-75
2023/07/14 03:05:45;;;;;;;8.10;1.63;;;17.70;99.90;;;;;;4987121;28;20473;-75
2023/07/14 03:08:16;;;;;;;4.10;1.55;;;17.70;99.90;;;;;;4986270;28;20029;-75
2023/07/14 03:10:49;;;;;;;5.20;2.45;;;17.60;99.90;;;;;;4988577;28;20503;-75
2023/07/14 03:13:16;;;;;;;6.55;1.50;;;17.60;99.90;;;;;;4987791;28;20522;-75
2023/07/14 03:15:43;;;;;;;5.82;1.30;;;17.30;99.90;;;;;;4986524;28;20112;-75
2023/07/14 03:18:09;;;;;;;4.60;1.30;;;17.10;99.90;;;;;;4980375;28;20038;-75
2023/07/14 03:20:34;;;;;;;5.70;1.50;;;17.10;99.90;;;;;;4982205;28;20941;-75
2023/07/14 03:23:00;;;;;;;4.57;1.40;;;17.10;99.90;;;;;;4980633;28;20042;-75
2023/07/14 03:25:26;;;;;;;5.70;1.80;;;17.00;99.90;;;;;;4987037;28;20038;-74
2023/07/14 03:27:52;;;;;;;6.70;1.40;;;17.10;99.90;;;;;;4983994;28;20069;-75
2023/07/14 03:30:19;;;;;;;2.45;1.20;;;17.30;99.90;;;;;;4985275;28;20176;-75
2023/07/14 03:32:45;;;;;;;4.75;1.60;;;17.40;99.90;;;;;;4984866;28;20076;-75
2023/07/14 03:35:10;;;;;;;4.65;1.40;;;17.30;99.90;;;;;;4988879;28;20468;-75
2023/07/14 03:37:36;;;;;;;2.53;1.23;;;17.30;99.90;;;;;;4987992;28;20026;-75
2023/07/14 03:40:04;;;;;;;2.40;1.38;;;17.30;99.90;;;;;;4987224;28;20041;-75
2023/07/14 03:42:30;;;;;;;3.55;1.38;;;17.30;99.90;;;;;;4985403;28;20026;-75
2023/07/14 03:44:56;;;;;;;2.20;1.25;;;17.40;99.90;;;;;;4986827;28;20097;-75
2023/07/14 03:47:22;;;;;;;5.00;1.10;;;17.40;99.90;;;;;;4986683;28;20053;-75
2023/07/14 03:49:47;;;;;;;5.28;2.10;;;17.30;99.90;;;;;;4985962;28;20031;-75
2023/07/14 03:52:13;;;;;;;4.88;1.23;;;17.30;99.90;;;;;;4983300;28;20027;-75
2023/07/14 03:54:39;;;;;;;6.47;1.92;;;17.30;99.90;;;;;;4985074;28;20034;-75
2023/07/14 03:57:05;;;;;;;3.17;1.10;;;17.20;99.90;;;;;;4981130;28;20072;-75
2023/07/14 03:59:31;;;;;;;6.35;1.30;;;17.20;99.90;;;;;;4984049;28;20026;-75
2023/07/14 04:01:57;;;;;;;2.08;0.98;;;17.20;99.90;;;;;;4982699;28;20034;-76
2023/07/14 04:04:22;;;;;;;1.98;1.00;;;17.10;99.90;;;;;;4979687;28;20093;-75
2023/07/14 04:06:49;;;;;;;2.80;1.23;;;17.00;99.90;;;;;;4981089;28;20635;-75
2023/07/14 04:09:14;;;;;;;3.03;1.55;;;17.00;99.90;;;;;;4979570;28;20038;-75
2023/07/14 04:11:40;;;;;;;3.95;1.38;;;17.20;99.90;;;;;;4981377;28;20073;-75
2023/07/14 04:14:07;;;;;;;2.72;1.35;;;17.30;99.90;;;;;;4980736;28;20041;-75
2023/07/14 04:16:33;;;;;;;6.38;1.73;;;17.40;99.90;;;;;;4981662;28;20077;-75
2023/07/14 04:18:59;;;;;;;4.13;1.20;;;17.40;99.90;;;;;;4981954;28;20127;-75
2023/07/14 04:21:25;;;;;;;3.50;1.45;;;17.30;99.90;;;;;;4981600;28;20038;-75
2023/07/14 04:23:54;;;;;;;3.53;1.10;;;17.30;99.90;;;;;;4981734;28;20042;-75
2023/07/14 04:26:21;;;;;;;2.83;1.20;;;17.30;99.90;;;;;;4979891;28;20064;-75
2023/07/14 04:28:47;;;;;;;4.20;1.30;;;17.30;99.90;;;;;;4980034;28;20050;-75
2023/07/14 04:31:14;;;;;;;6.43;1.60;;;17.30;99.90;;;;;;4981071;28;20030;-75
2023/07/14 04:33:43;;;;;;;3.42;1.63;;;17.40;99.90;;;;;;4982219;28;20832;-75
2023/07/14 04:36:09;;;;;;;4.13;1.38;;;17.50;99.90;;;;;;4982104;28;20030;-75
2023/07/14 04:38:35;;;;;;;6.50;1.70;;;17.50;99.90;;;;;;4979866;28;20508;-75
2023/07/14 04:41:01;;;;;;;2.15;1.15;;;17.50;99.90;;;;;;4979023;28;20040;-75
2023/07/14 04:43:26;;;;;;;4.13;1.38;;;17.40;99.90;;;;;;4982177;28;20121;-75
2023/07/14 04:45:52;;;;;;;5.82;1.40;;;17.30;99.90;;;;;;4980625;28;20035;-75
2023/07/14 04:48:22;;;;;;;3.80;1.52;;;17.30;99.90;;;;;;4983584;28;20034;-75
2023/07/14 04:50:47;;;;;;;3.90;1.58;;;17.40;99.90;;;;;;4980532;28;20027;-75
2023/07/14 04:53:14;;;;;;;4.47;1.48;;;17.30;99.90;;;;;;4979353;28;20031;-75
2023/07/14 04:55:42;;;;;;;3.40;1.30;;;17.50;99.90;;;;;;4981765;28;20026;-75
2023/07/14 04:58:10;;;;;;;4.45;1.55;;;17.70;99.90;;;;;;4985099;28;20074;-75
2023/07/14 05:00:38;;;;;;;2.67;1.30;;;17.80;99.90;;;;;;4978813;28;20022;-76
2023/07/14 05:03:05;;;;;;;3.30;1.67;;;17.90;99.90;;;;;;4983322;28;20026;-75
2023/07/14 05:05:31;;;;;;;3.50;1.40;;;17.90;99.90;;;;;;4980922;28;20084;-75
2023/07/14 05:07:56;;;;;;;5.25;1.35;;;17.90;99.90;;;;;;4980086;28;20042;-75
2023/07/14 05:10:24;;;;;;;2.50;1.20;;;17.90;99.90;;;;;;4979843;28;20030;-75
2023/07/14 05:12:51;;;;;;;4.65;1.50;;;18.00;99.90;;;;;;4979483;28;20042;-75
2023/07/14 05:15:18;;;;;;;2.85;1.38;;;18.10;99.90;;;;;;4977783;28;20038;-76
2023/07/14 05:17:44;;;;;;;5.60;1.45;;;18.10;99.90;;;;;;4987179;28;20061;-76
2023/07/14 05:20:10;;;;;;;3.70;1.45;;;18.20;99.90;;;;;;4981179;28;20342;-76
2023/07/14 05:22:37;;;;;;;3.42;1.35;;;18.30;99.90;;;;;;4978070;28;20026;-76
2023/07/14 05:25:03;;;;;;;3.15;1.48;;;18.20;99.90;;;;;;4981973;28;20069;-76
2023/07/14 05:27:30;;;;;;;7.15;1.95;;;18.30;99.90;;;;;;4982810;28;20092;-76
2023/07/14 05:29:56;;;;;;;5.45;1.80;;;18.40;99.90;;;;;;4984833;28;20054;-77
2023/07/14 05:32:24;;;;;;;4.68;1.67;;;18.50;99.90;;;;;;4984017;28;20710;-76
2023/07/14 05:34:50;;;;;;;3.33;1.30;;;18.60;99.90;;;;;;4981949;28;20048;-78
2023/07/14 05:37:17;;;;;;;3.80;1.73;;;18.60;99.90;;;;;;4981197;28;20045;-76
2023/07/14 05:39:43;;;;;;;5.50;1.80;;;18.50;99.90;;;;;;4981618;28;20062;-76
2023/07/14 05:42:09;;;;;;;4.80;1.70;;;18.50;99.90;;;;;;4978080;28;20042;-76
2023/07/14 05:44:35;;;;;;;3.58;1.33;;;18.50;99.90;;;;;;4981897;28;20038;-77
2023/07/14 05:47:01;;;;;;;5.35;1.40;;;18.50;99.90;;;;;;4978758;28;20033;-75
2023/07/14 05:49:27;;;;;;;4.75;1.30;;;18.60;99.90;;;;;;4978790;28;20030;-75
2023/07/14 05:51:53;;;;;;;5.00;2.03;;;18.40;99.90;;;;;;4980070;28;20476;-75
2023/07/14 05:54:21;;;;;;;2.90;1.30;;;18.30;99.90;;;;;;4980776;28;20050;-75
2023/07/14 05:56:46;;;;;;;3.47;1.20;;;18.40;99.90;;;;;;4980562;28;20438;-75
2023/07/14 05:59:13;;;;;;;3.67;1.75;;;18.20;99.90;;;;;;4980603;28;20113;-75
2023/07/14 06:01:39;;;;;;;4.05;1.20;;;18.20;99.90;;;;;;4983726;28;20156;-75
2023/07/14 06:04:07;;;;;;;4.97;1.25;;;18.30;99.90;;;;;;4981367;28;20112;-76
2023/07/14 06:06:33;;;;;;;4.40;1.95;;;18.50;99.90;;;;;;4981027;28;20496;-75
2023/07/14 06:09:00;;;;;;;7.03;2.13;;;18.60;99.90;;;;;;4980293;28;20034;-74
2023/07/14 06:11:27;;;;;;;7.72;2.42;;;18.70;99.90;;;;;;4979281;28;20037;-76
2023/07/14 06:13:52;;;;;;;6.95;1.80;;;18.70;99.90;;;;;;4979885;28;20388;-76
2023/07/14 06:16:21;;;;;;;5.40;1.83;;;18.70;99.90;;;;;;4983695;28;20161;-77
2023/07/14 06:18:48;;;;;;;3.72;1.40;;;18.70;99.90;;;;;;4984674;28;21029;-76
2023/07/14 06:21:14;;;;;;;6.47;2.15;;;18.70;99.90;;;;;;4981785;28;20661;-75
2023/07/14 06:23:39;;;;;;;17.48;2.20;;;18.80;99.90;;;;;;4983529;28;20093;-75
2023/07/14 06:26:05;;;;;;;5.60;1.40;;;18.80;99.90;;;;;;4983491;28;20034;-76
2023/07/14 06:28:31;;;;;;;4.35;1.92;;;18.80;99.90;;;;;;4982354;28;20519;-77
2023/07/14 06:30:58;;;;;;;3.80;1.70;;;18.90;99.90;;;;;;4982133;28;20603;-77
2023/07/14 06:33:24;;;;;;;2.20;1.33;;;19.00;99.90;;;;;;4979538;28;20023;-76
2023/07/14 06:35:50;;;;;;;3.75;1.83;;;19.00;99.90;;;;;;4983248;28;20038;-75
2023/07/14 06:38:16;;;;;;;3.65;1.83;;;19.00;99.90;;;;;;4980094;28;20022;-75
2023/07/14 06:40:42;;;;;;;4.18;1.73;;;19.10;99.90;;;;;;4981973;28;20938;-77
2023/07/14 06:43:09;;;;;;;4.80;2.05;;;19.20;99.90;;;;;;4978301;28;20037;-76
2023/07/14 06:45:35;;;;;;;2.63;1.38;;;19.20;99.90;;;;;;4976527;28;20141;-76
2023/07/14 06:48:01;;;;;;;5.93;1.77;;;19.30;99.90;;;;;;4979765;28;20034;-76
2023/07/14 06:50:27;;;;;;;4.22;1.90;;;19.30;99.90;;;;;;4986107;28;20026;-76
2023/07/14 06:52:56;;;;;;;5.22;1.90;;;19.30;99.90;;;;;;4974663;28;20539;-76
2023/07/14 06:55:25;;;;;;;3.72;1.60;;;19.30;99.90;;;;;;4983097;28;20669;-77
2023/07/14 06:57:50;;;;;;;7.38;2.00;;;19.50;99.90;;;;;;5001657;28;20748;-76
2023/07/14 07:00:16;;;;;;;6.47;1.65;;;19.50;99.90;;;;;;4986372;28;20109;-76
2023/07/14 07:02:42;;;;;;;3.67;1.42;;;19.60;99.90;;;;;;4984026;28;20042;-76
2023/07/14 07:05:10;;;;;;;8.20;1.58;;;19.70;99.90;;;;;;4987534;28;20045;-76
2023/07/14 07:07:36;;;;;;;4.63;1.52;;;19.90;99.90;;;;;;4988407;28;20041;-76
2023/07/14 07:10:02;;;;;;;3.42;1.45;;;20.00;99.90;;;;;;4982786;28;20030;-76
2023/07/14 07:12:28;;;;;;;5.53;1.60;;;20.30;99.90;;;;;;4981508;28;20523;-76
2023/07/14 07:14:54;;;;;;;4.90;1.70;;;20.60;99.90;;;;;;4979623;28;20038;-76
2023/07/14 07:17:19;;;;;;;6.68;1.90;;;21.00;99.90;;;;;;4982039;28;20081;-76
2023/07/14 07:19:45;;;;;;;6.43;1.92;;;21.30;99.90;;;;;;4979316;28;20038;-78
2023/07/14 07:22:10;;;;;;;3.45;1.55;;;21.40;99.90;;;;;;4976148;28;20065;-78
2023/07/14 07:24:36;;;;;;;4.82;1.75;;;21.60;99.90;;;;;;4984762;28;20038;-77
2023/07/14 07:27:03;;;;;;;4.55;1.88;;;21.70;99.90;;;;;;4983624;28;20040;-78
2023/07/14 07:29:30;;;;;;;5.70;1.90;;;22.10;99.90;;;;;;4983488;28;20089;-77
2023/07/14 07:31:56;;;;;;;7.47;1.85;;;22.30;99.90;;;;;;4984983;28;20033;-78
2023/07/14 07:34:22;;;;;;;3.70;1.30;;;23.10;99.90;;;;;;4983460;28;20077;-78
2023/07/14 07:36:48;;;;;;;4.00;1.58;;;23.90;99.90;;;;;;4985531;28;20058;-77
2023/07/14 07:39:14;;;;;;;4.53;1.48;;;24.70;99.90;;;;;;4986444;28;20089;-78
2023/07/14 07:41:40;;;;;;;6.30;1.30;;;25.40;99.90;;;;;;4984279;28;21091;-77
2023/07/14 07:44:08;;;;;;;3.00;1.50;;;26.10;99.90;;;;;;4983667;28;20512;-77
2023/07/14 07:46:36;;;;;;;3.63;1.60;;;27.20;98.90;;;;;;4982402;28;20069;-77
2023/07/14 07:49:02;;;;;;;6.03;1.70;;;27.80;98.00;;;;;;4981983;28;20441;-79
2023/07/14 07:51:28;;;;;;;3.75;1.35;;;28.00;97.50;;;;;;4981188;28;20121;-77
2023/07/14 07:53:54;;;;;;;5.57;2.42;;;27.80;97.00;;;;;;4981001;28;20665;-76
2023/07/14 07:56:20;;;;;;;6.85;1.98;;;27.50;97.10;;;;;;4981789;28;20022;-79
2023/07/14 07:58:46;;;;;;;3.78;1.52;;;27.30;98.00;;;;;;4980891;28;20568;-75
2023/07/14 08:01:19;;;;;;;5.90;1.80;;;27.50;98.50;;;;;;4981386;28;20136;-77
2023/07/14 08:03:45;;;;;;;5.77;1.30;;;26.80;99.60;;;;;;4976407;28;20657;-77
2023/07/14 08:06:11;;;;;;;6.38;1.88;;;26.00;99.90;;;;;;4982208;28;20098;-77
2023/07/14 08:08:37;;;;;;;6.65;1.50;;;25.60;99.90;;;;;;4982343;28;20030;-77
2023/07/14 08:11:07;;;;;;;5.85;1.45;;;25.50;99.90;;;;;;4980936;28;20118;-77
2023/07/14 08:13:32;;;;;;;4.10;1.60;;;25.70;99.90;;;;;;4981887;28;20551;-77
2023/07/14 08:15:58;;;;;;;4.40;1.38;;;25.20;99.90;;;;;;4980624;28;20035;-77
2023/07/14 08:18:24;;;;;;;4.90;1.52;;;25.20;99.90;;;;;;4980238;28;20030;-79
2023/07/14 08:20:50;;;;;;;5.25;1.70;;;25.20;99.90;;;;;;4982998;28;20046;-76
2023/07/14 08:23:17;;;;;;;4.10;1.70;;;24.70;99.90;;;;;;4980133;28;20042;-76
2023/07/14 08:25:43;;;;;;;5.53;1.73;;;24.30;99.90;;;;;;4981726;28;20041;-76
2023/07/14 08:28:10;;;;;;;3.15;1.42;;;24.10;99.90;;;;;;4980724;28;20404;-76
2023/07/14 08:30:35;;;;;;;4.32;1.63;;;24.10;99.90;;;;;;4962543;28;20113;-75
2023/07/14 08:33:01;;;;;;;6.60;2.08;;;24.20;99.90;;;;;;4962101;28;20429;-75
2023/07/14 08:35:27;;;;;;;4.32;1.58;;;24.00;99.90;;;;;;4962338;28;20366;-75
2023/07/14 08:37:53;;;;;;;5.55;1.50;;;23.90;99.90;;;;;;4957934;28;20041;-74
2023/07/14 08:40:25;;;;;;;6.32;1.88;;;24.10;99.90;;;;;;4961497;28;20370;-76
2023/07/14 08:43:14;;;;;;;3.55;1.70;;;24.60;99.90;;;;;;4960795;28;20038;-75
2023/07/14 08:45:53;;;;;;;4.43;1.65;;;24.60;99.90;;;;;;4959179;28;20042;-76
2023/07/14 08:48:41;;;;;;;4.72;1.67;;;24.60;99.90;;;;;;4961247;28;20050;-76
2023/07/14 08:51:28;;;;;;;7.07;1.40;;;24.60;99.90;;;;;;4963189;28;20085;-76
2023/07/14 08:54:03;;;;;;;3.05;1.30;;;24.60;99.90;;;;;;4962258;28;20050;-75
2023/07/14 08:56:35;;;;;;;7.63;1.98;;;24.60;99.90;;;;;;4965413;28;20027;-76
2023/07/14 08:59:37;;;;;;;8.73;2.10;;;24.70;99.90;;;;;;5114109;27;20414;-75
2023/07/14 09:02:15;;;;;;;5.27;1.97;;;24.80;99.90;;;;;;5115831;28;20118;-75
2023/07/14 09:04:44;;;;;;;4.55;1.88;;;24.80;99.70;;;;;;5116387;27;20093;-76
2023/07/14 09:07:16;;;;;;;6.10;1.77;;;24.90;99.90;;;;;;5120687;28;20393;-75
2023/07/14 09:09:42;;;;;;;4.70;1.50;;;25.00;99.90;;;;;;5116124;28;20023;-75
2023/07/14 09:12:24;;;;;;;3.22;1.35;;;25.20;99.90;;;;;;5116785;27;20038;-75
2023/07/14 09:14:59;;;;;;;5.40;1.75;;;25.00;99.90;;;;;;5115773;28;20034;-75
2023/07/14 09:18:11;;;;;;;4.63;1.58;;;25.10;99.90;;;;;;5114358;28;20063;-76
2023/07/14 09:20:45;;;;;;;3.90;1.60;;;25.50;99.90;;;;;;5097558;28;20063;-75
2023/07/14 09:23:16;;;;;;;3.90;1.40;;;25.00;99.80;;;;;;5116645;28;20032;-75
2023/07/14 09:26:08;;;;;;;2.85;1.42;;;24.60;99.90;;;;;;5116269;28;20035;-75
2023/07/14 09:28:48;;;;;;;6.03;1.50;;;25.00;99.90;;;;;;5114846;28;20035;-77
2023/07/14 09:31:50;;;;;;;3.85;1.40;;;25.10;99.90;;;;;;5119258;28;20027;-75
2023/07/14 09:34:42;;;;;;;6.00;1.60;;;25.60;99.90;;;;;;5117417;27;20093;-76
2023/07/14 09:37:26;;;;;;;4.93;1.83;;;25.70;99.90;;;;;;5117524;28;20078;-75
2023/07/14 09:40:15;;;;;;;6.10;2.10;;;25.70;99.90;;;;;;5105040;28;20031;-74
2023/07/14 09:42:42;;;;;;;5.30;1.90;;;25.40;99.90;;;;;;5103966;28;20443;-74
2023/07/14 09:45:19;;;;;;;4.00;1.30;;;25.50;99.90;;;;;;5110604;28;20031;-73
2023/07/14 09:47:49;;;;;;;3.47;1.52;;;25.80;99.90;;;;;;5110228;28;20033;-74
2023/07/14 09:50:17;;;;;;;4.18;1.50;;;26.00;99.90;;;;;;5114649;28;21057;-72
2023/07/14 09:52:55;;;;;;;3.42;1.40;;;26.60;99.90;;;;;;5114956;28;20725;-72
2023/07/14 09:55:23;;;;;;;5.80;1.63;;;26.40;99.00;;;;;;5114059;28;20023;-74
2023/07/14 09:57:52;;;;;;;5.18;1.92;;;26.70;99.90;;;;;;5110471;28;20093;-74
2023/07/14 10:00:25;;;;;;;5.60;1.65;;;27.20;99.10;;;;;;5111754;28;20028;-74
2023/07/14 10:03:07;;;;;;;3.17;1.77;;;27.00;99.60;;;;;;5113158;28;20028;-74
2023/07/14 10:05:36;;;;;;;7.07;2.05;;;27.10;98.90;;;;;;5111853;28;20066;-74
2023/07/14 10:08:22;;;;;;;4.63;1.52;;;27.20;98.80;;;;;;5107873;27;20062;-73
2023/07/14 10:10:49;;;;;;;4.10;1.20;;;26.90;98.10;;;;;;5096558;28;20107;-72
2023/07/14 10:13:26;;;;;;;7.93;1.58;;;26.90;99.00;;;;;;5092751;28;20475;-75
2023/07/14 10:16:03;;;;;;;2.80;1.60;;;27.00;98.90;;;;;;5094798;28;20024;-74
2023/07/14 10:18:30;;;;;;;3.58;1.25;;;27.30;99.30;;;;;;5095141;28;20038;-73
2023/07/14 10:21:11;;;;;;;4.35;1.83;;;27.50;98.90;;;;;;5094688;28;20110;-74
2023/07/14 10:23:37;;;;;;;3.13;1.60;;;27.50;98.50;;;;;;5094832;27;20089;-74
2023/07/14 10:26:07;;;;;;;3.97;1.83;;;27.10;98.60;;;;;;5096086;28;20469;-73
2023/07/14 10:28:35;;;;;;;2.80;1.45;;;27.50;99.30;;;;;;5093234;28;20028;-74
2023/07/14 10:31:28;;;;;;;4.07;1.52;;;27.60;98.80;;;;;;5095240;28;20626;-71
2023/07/14 10:33:54;;;;;;;9.67;1.90;;;27.80;98.90;;;;;;5075719;28;20071;-73
2023/07/14 10:36:28;;;;;;;3.45;1.27;;;27.70;98.10;;;;;;5097265;27;20127;-72
2023/07/14 10:39:02;;;;;;;4.53;1.88;;;27.90;98.20;;;;;;5092998;27;20477;-72
2023/07/14 10:41:29;;;;;;;3.70;1.33;;;28.00;98.60;;;;;;5095099;28;20036;-72
2023/07/14 10:44:05;;;;;;;2.85;1.60;;;27.50;98.20;;;;;;5092519;28;20090;-72
2023/07/14 10:46:36;;;;;;;4.80;1.52;;;27.30;99.50;;;;;;5089947;28;20047;-72
2023/07/14 10:49:25;;;;;;;4.25;1.50;;;27.50;98.00;;;;;;5091530;28;20028;-73
2023/07/14 10:52:03;;;;;;;2.33;1.30;;;27.60;98.90;;;;;;5098201;27;20592;-72
2023/07/14 10:54:45;;;;;;;3.05;1.55;;;28.10;99.60;;;;;;5101462;28;20141;-73
2023/07/14 10:57:43;;;;;;;4.18;1.40;;;28.10;98.80;;;;;;5098932;28;20503;-72
2023/07/14 11:00:20;;;;;;;6.18;1.77;;;28.40;99.20;;;;;;5100860;28;20040;-72
2023/07/14 11:02:59;;;;;;;4.72;1.58;;;28.40;98.40;;;;;;5105166;28;20286;-72
2023/07/14 11:05:27;;;;;;;7.20;1.70;;;28.50;99.90;;;;;;5103365;28;20059;-72
2023/07/14 11:07:53;;;;;;;3.67;1.67;;;28.70;99.30;;;;;;5105725;28;20030;-72
2023/07/14 11:10:42;;;;;;;4.25;1.75;;;28.60;99.20;;;;;;5106904;28;20032;-72
2023/07/14 11:13:19;;;;;;;3.50;1.70;;;28.60;99.30;;;;;;5106645;28;20032;-72
2023/07/14 11:15:52;;;;;;;3.17;1.60;;;28.70;98.80;;;;;;5106079;28;20043;-71
2023/07/14 11:18:23;;;;;;;3.28;1.77;;;28.70;98.70;;;;;;5107129;28;20127;-73
2023/07/14 11:21:15;;;;;;;5.03;1.60;;;29.00;99.10;;;;;;5107028;28;20621;-74
2023/07/14 11:23:51;;;;;;;4.35;1.70;;;28.90;97.70;;;;;;5093454;28;20042;-73
2023/07/14 11:26:28;;;;;;;4.75;1.83;;;28.90;99.30;;;;;;5107725;28;20034;-73
2023/07/14 11:29:10;;;;;;;3.30;1.73;;;29.00;98.80;;;;;;5104634;28;20036;-74
2023/07/14 11:31:53;;;;;;;3.08;1.50;;;29.00;97.60;;;;;;5104500;28;20099;-73
2023/07/14 11:34:40;;;;;;;3.53;1.50;;;28.90;98.90;;;;;;5101898;28;20031;-73
2023/07/14 11:37:28;;;;;;;4.90;1.88;;;28.90;98.90;;;;;;5107409;28;20028;-73
2023/07/14 11:39:57;;;;;;;5.18;2.58;;;28.90;99.60;;;;;;5103129;28;20080;-73
2023/07/14 11:42:29;;;;;;;3.45;1.70;;;29.20;98.30;;;;;;5101696;28;20473;-73
2023/07/14 11:44:58;;;;;;;5.07;1.60;;;29.40;98.60;;;;;;5108424;28;20043;-73
2023/07/14 11:47:26;;;;;;;4.88;1.77;;;29.70;98.10;;;;;;5093417;28;20516;-73
2023/07/14 11:49:54;;;;;;;4.38;1.90;;;29.80;98.10;;;;;;5100373;28;20020;-73
2023/07/14 11:52:26;;;;;;;4.07;1.85;;;29.80;97.10;;;;;;5087566;28;20059;-73
2023/07/14 11:55:02;;;;;;;3.45;1.80;;;29.90;96.60;;;;;;5107915;28;20032;-73
2023/07/14 11:57:30;;;;;;;3.20;1.60;;;29.60;96.40;;;;;;5108002;28;20126;-72
2023/07/14 11:59:56;;;;;;;5.50;1.77;;;29.70;97.30;;;;;;5108070;28;20552;-73
2023/07/14 12:02:38;;;;;;;4.55;1.95;;;29.70;97.70;;;;;;5104910;28;20030;-73
2023/07/14 12:05:13;;;;;;;6.15;2.13;;;29.40;96.10;;;;;;5096908;28;20035;-73
2023/07/14 12:08:01;;;;;;;5.38;1.60;;;29.10;96.70;;;;;;5095031;28;20026;-72
2023/07/14 12:10:39;;;;;;;3.60;1.40;;;29.20;96.10;;;;;;5093381;28;20090;-72
2023/07/14 12:13:24;;;;;;;4.32;1.80;;;29.20;96.60;;;;;;5097373;28;20030;-72
2023/07/14 12:15:56;;;;;;;4.20;1.55;;;29.50;95.50;;;;;;5087301;28;20039;-71
2023/07/14 12:18:32;;;;;;;3.15;1.48;;;29.70;95.50;;;;;;5102846;28;20031;-72
2023/07/14 12:21:16;;;;;;;3.55;1.58;;;29.20;95.30;;;;;;5093516;28;20496;-73
2023/07/14 12:23:42;;;;;;;;;;;29.00;96.00;;;;;;5100593;28;20036;-72
2023/07/14 12:26:13;;;;;;;4.10;2.10;;;28.90;95.20;;;;;;5099623;28;19943;-72
2023/07/14 12:28:39;;;;;;;4.70;2.03;;;28.70;95.50;;;;;;5095470;28;20027;-73
2023/07/14 12:31:16;;;;;;;5.82;1.50;;;28.70;95.40;;;;;;5096349;28;20623;-72
2023/07/14 12:33:43;;;;;;;3.30;1.83;;;28.80;96.20;;;;;;5094166;28;20489;-72
2023/07/14 12:36:15;;;;;;;3.80;1.80;;;28.80;96.10;;;;;;5095146;28;20031;-72
2023/07/14 12:38:45;;;;;;;2.95;1.40;;;28.90;96.20;;;;;;5096531;28;20039;-72
2023/07/14 12:41:11;;;;;;;3.63;1.70;;;29.00;95.60;;;;;;5098180;28;20610;-72
2023/07/14 12:43:43;;;;;;;3.15;1.98;;;29.00;96.50;;;;;;5096510;28;20024;-72
2023/07/14 12:46:28;;;;;;;4.15;2.13;;;29.00;96.80;;;;;;5096164;28;20111;-73
2023/07/14 12:49:18;;;;;;;8.32;2.35;;;29.00;97.10;;;;;;5094964;28;20424;-73
2023/07/14 12:51:44;;;;;;;4.57;1.65;;;29.30;97.10;;;;;;5094927;28;20119;-72
2023/07/14 12:54:25;;;;;;;5.50;2.00;;;29.30;96.30;;;;;;5093832;28;20615;-71
2023/07/14 12:56:53;;;;;;;4.43;1.70;;;28.90;97.40;;;;;;5096282;28;20032;-73
2023/07/14 12:59:18;;;;;;;4.70;2.20;;;28.70;97.50;;;;;;5097436;28;20481;-73
2023/07/14 13:01:48;;;;;;;4.90;1.80;;;28.80;97.60;;;;;;5103543;28;20035;-72
2023/07/14 13:04:15;;;;;;;3.15;1.95;;;28.90;96.60;;;;;;5104792;28;20031;-72
2023/07/14 13:06:43;;;;;;;4.70;2.03;;;28.90;96.80;;;;;;5105093;28;20031;-71